sensor_id;sensor_type;location;lat;lon;timestamp;P1;durP1;ratioP1;P2;durP2;ratioP2
70320;SDS011;61127;55.826;37.046;2022-11-09T00:01:23;36.38;;;14.93;;
70320;SDS011;61127;55.826;37.046;2022-11-09T00:03:52;31.90;;;12.70;;
70320;SDS011;61127;55.826;37.046;2022-11-09T00:06:19;32.45;;;13.43;;
70320;SDS011;61127;55.826;37.046;2022-11-09T00:08:45;31.95;;;13.88;;
70320;SDS011;61127;55.826;37.046;2022-11-09T00:11:10;34.72;;;13.73;;
70320;SDS011;61127;55.826;37.046;2022-11-09T00:13:37;31.73;;;12.70;;
70320;SDS011;61127;55.826;37.046;2022-11-09T00:16:03;32.47;;;13.23;;
70320;SDS011;61127;55.826;37.046;2022-11-09T00:18:33;33.03;;;13.30;;
70320;SDS011;61127;55.826;37.046;2022-11-09T00:21:03;34.38;;;13.55;;
70320;SDS011;61127;55.826;37.046;2022-11-09T00:23:29;36.78;;;16.40;;
70320;SDS011;61127;55.826;37.046;2022-11-09T00:25:58;34.70;;;13.65;;
70320;SDS011;61127;55.826;37.046;2022-11-09T00:28:25;34.08;;;14.27;;
70320;SDS011;61127;55.826;37.046;2022-11-09T00:30:59;35.92;;;14.43;;
70320;SDS011;61127;55.826;37.046;2022-11-09T00:33:25;33.57;;;14.17;;
70320;SDS011;61127;55.826;37.046;2022-11-09T00:35:50;42.05;;;15.77;;
70320;SDS011;61127;55.826;37.046;2022-11-09T00:38:17;45.37;;;16.10;;
70320;SDS011;61127;55.826;37.046;2022-11-09T00:40:42;49.33;;;15.68;;
70320;SDS011;61127;55.826;37.046;2022-11-09T00:43:08;49.47;;;16.43;;
70320;SDS011;61127;55.826;37.046;2022-11-09T00:45:34;49.20;;;17.05;;
70320;SDS011;61127;55.826;37.046;2022-11-09T00:48:00;50.67;;;17.57;;
70320;SDS011;61127;55.826;37.046;2022-11-09T00:50:26;50.40;;;17.15;;
70320;SDS011;61127;55.826;37.046;2022-11-09T00:52:51;49.10;;;17.13;;
70320;SDS011;61127;55.826;37.046;2022-11-09T00:55:17;48.58;;;16.20;;
70320;SDS011;61127;55.826;37.046;2022-11-09T00:57:51;47.40;;;17.15;;
70320;SDS011;61127;55.826;37.046;2022-11-09T01:00:19;47.57;;;17.50;;
70320;SDS011;61127;55.826;37.046;2022-11-09T01:02:45;46.60;;;15.40;;
70320;SDS011;61127;55.826;37.046;2022-11-09T01:05:10;44.33;;;14.90;;
70320;SDS011;61127;55.826;37.046;2022-11-09T01:07:37;46.80;;;15.70;;
70320;SDS011;61127;55.826;37.046;2022-11-09T01:10:03;41.45;;;15.18;;
70320;SDS011;61127;55.826;37.046;2022-11-09T01:12:29;43.30;;;16.10;;
70320;SDS011;61127;55.826;37.046;2022-11-09T01:14:54;41.73;;;15.67;;
70320;SDS011;61127;55.826;37.046;2022-11-09T01:17:21;44.40;;;16.75;;
70320;SDS011;61127;55.826;37.046;2022-11-09T01:19:47;43.28;;;16.55;;
70320;SDS011;61127;55.826;37.046;2022-11-09T01:22:13;43.28;;;16.52;;
70320;SDS011;61127;55.826;37.046;2022-11-09T01:24:39;42.05;;;16.33;;
70320;SDS011;61127;55.826;37.046;2022-11-09T01:27:04;41.33;;;15.37;;
70320;SDS011;61127;55.826;37.046;2022-11-09T01:29:30;37.00;;;15.30;;
70320;SDS011;61127;55.826;37.046;2022-11-09T01:31:56;42.17;;;16.93;;
70320;SDS011;61127;55.826;37.046;2022-11-09T01:34:21;40.40;;;15.33;;
70320;SDS011;61127;55.826;37.046;2022-11-09T01:36:50;40.47;;;16.17;;
70320;SDS011;61127;55.826;37.046;2022-11-09T01:39:16;44.85;;;15.65;;
70320;SDS011;61127;55.826;37.046;2022-11-09T01:41:42;45.53;;;17.30;;
70320;SDS011;61127;55.826;37.046;2022-11-09T01:44:12;47.30;;;16.97;;
70320;SDS011;61127;55.826;37.046;2022-11-09T01:46:52;50.60;;;16.02;;
70320;SDS011;61127;55.826;37.046;2022-11-09T01:49:42;44.10;;;15.40;;
70320;SDS011;61127;55.826;37.046;2022-11-09T01:52:12;45.28;;;16.52;;
70320;SDS011;61127;55.826;37.046;2022-11-09T01:54:44;43.03;;;16.00;;
70320;SDS011;61127;55.826;37.046;2022-11-09T01:57:16;44.53;;;16.02;;
70320;SDS011;61127;55.826;37.046;2022-11-09T01:59:43;43.00;;;14.75;;
70320;SDS011;61127;55.826;37.046;2022-11-09T02:02:11;39.38;;;15.18;;
70320;SDS011;61127;55.826;37.046;2022-11-09T02:04:44;39.53;;;15.60;;
70320;SDS011;61127;55.826;37.046;2022-11-09T02:07:15;38.63;;;14.80;;
70320;SDS011;61127;55.826;37.046;2022-11-09T02:09:47;40.33;;;14.63;;
70320;SDS011;61127;55.826;37.046;2022-11-09T02:12:14;33.65;;;13.73;;
70320;SDS011;61127;55.826;37.046;2022-11-09T02:14:41;37.47;;;14.68;;
70320;SDS011;61127;55.826;37.046;2022-11-09T02:17:08;36.33;;;15.05;;
70320;SDS011;61127;55.826;37.046;2022-11-09T02:19:35;31.52;;;13.70;;
70320;SDS011;61127;55.826;37.046;2022-11-09T02:22:02;32.72;;;13.50;;
70320;SDS011;61127;55.826;37.046;2022-11-09T02:24:31;32.15;;;13.75;;
70320;SDS011;61127;55.826;37.046;2022-11-09T02:26:58;32.42;;;12.38;;
70320;SDS011;61127;55.826;37.046;2022-11-09T02:29:26;33.33;;;12.63;;
70320;SDS011;61127;55.826;37.046;2022-11-09T02:31:54;29.27;;;11.95;;
70320;SDS011;61127;55.826;37.046;2022-11-09T02:34:22;33.28;;;13.18;;
70320;SDS011;61127;55.826;37.046;2022-11-09T02:36:49;31.58;;;12.88;;
70320;SDS011;61127;55.826;37.046;2022-11-09T02:39:19;30.63;;;12.13;;
70320;SDS011;61127;55.826;37.046;2022-11-09T02:41:54;28.98;;;11.95;;
70320;SDS011;61127;55.826;37.046;2022-11-09T02:44:20;29.58;;;12.63;;
70320;SDS011;61127;55.826;37.046;2022-11-09T02:46:51;28.27;;;12.27;;
70320;SDS011;61127;55.826;37.046;2022-11-09T02:49:17;28.85;;;12.18;;
70320;SDS011;61127;55.826;37.046;2022-11-09T02:51:42;26.33;;;11.43;;
70320;SDS011;61127;55.826;37.046;2022-11-09T02:54:08;27.25;;;11.73;;
70320;SDS011;61127;55.826;37.046;2022-11-09T02:56:36;25.98;;;12.85;;
70320;SDS011;61127;55.826;37.046;2022-11-09T02:59:03;29.05;;;11.65;;
70320;SDS011;61127;55.826;37.046;2022-11-09T03:01:29;28.07;;;11.53;;
70320;SDS011;61127;55.826;37.046;2022-11-09T03:03:56;30.10;;;11.82;;
70320;SDS011;61127;55.826;37.046;2022-11-09T03:06:22;24.75;;;11.23;;
70320;SDS011;61127;55.826;37.046;2022-11-09T03:09:02;28.80;;;11.48;;
70320;SDS011;61127;55.826;37.046;2022-11-09T03:11:28;24.67;;;10.57;;
70320;SDS011;61127;55.826;37.046;2022-11-09T03:13:54;26.75;;;11.93;;
70320;SDS011;61127;55.826;37.046;2022-11-09T03:16:20;26.33;;;12.00;;
70320;SDS011;61127;55.826;37.046;2022-11-09T03:18:46;25.20;;;11.53;;
70320;SDS011;61127;55.826;37.046;2022-11-09T03:21:11;27.70;;;11.25;;
70320;SDS011;61127;55.826;37.046;2022-11-09T03:23:37;25.17;;;11.33;;
70320;SDS011;61127;55.826;37.046;2022-11-09T03:26:02;25.67;;;11.37;;
70320;SDS011;61127;55.826;37.046;2022-11-09T03:28:29;22.42;;;10.95;;
70320;SDS011;61127;55.826;37.046;2022-11-09T03:30:55;27.80;;;12.32;;
70320;SDS011;61127;55.826;37.046;2022-11-09T03:33:21;21.00;;;10.33;;
70320;SDS011;61127;55.826;37.046;2022-11-09T03:35:46;27.90;;;11.70;;
70320;SDS011;61127;55.826;37.046;2022-11-09T03:38:16;24.70;;;10.45;;
70320;SDS011;61127;55.826;37.046;2022-11-09T03:40:42;24.08;;;9.88;;
70320;SDS011;61127;55.826;37.046;2022-11-09T03:43:08;23.30;;;10.20;;
70320;SDS011;61127;55.826;37.046;2022-11-09T03:45:34;25.20;;;12.90;;
70320;SDS011;61127;55.826;37.046;2022-11-09T03:48:01;27.98;;;12.52;;
70320;SDS011;61127;55.826;37.046;2022-11-09T03:50:27;25.10;;;11.70;;
70320;SDS011;61127;55.826;37.046;2022-11-09T03:52:53;26.63;;;12.82;;
70320;SDS011;61127;55.826;37.046;2022-11-09T03:55:18;24.15;;;10.60;;
70320;SDS011;61127;55.826;37.046;2022-11-09T03:57:45;23.80;;;11.10;;
70320;SDS011;61127;55.826;37.046;2022-11-09T04:00:11;26.33;;;11.80;;
70320;SDS011;61127;55.826;37.046;2022-11-09T04:02:37;23.52;;;11.32;;
70320;SDS011;61127;55.826;37.046;2022-11-09T04:05:03;23.80;;;11.60;;
70320;SDS011;61127;55.826;37.046;2022-11-09T04:07:30;21.23;;;10.65;;
70320;SDS011;61127;55.826;37.046;2022-11-09T04:09:56;23.05;;;10.52;;
70320;SDS011;61127;55.826;37.046;2022-11-09T04:12:22;25.50;;;10.93;;
70320;SDS011;61127;55.826;37.046;2022-11-09T04:14:47;19.85;;;10.27;;
70320;SDS011;61127;55.826;37.046;2022-11-09T04:17:13;19.37;;;10.30;;
70320;SDS011;61127;55.826;37.046;2022-11-09T04:19:39;23.15;;;10.30;;
70320;SDS011;61127;55.826;37.046;2022-11-09T04:22:04;21.97;;;10.83;;
70320;SDS011;61127;55.826;37.046;2022-11-09T04:24:30;27.20;;;12.33;;
70320;SDS011;61127;55.826;37.046;2022-11-09T04:26:57;20.60;;;10.35;;
70320;SDS011;61127;55.826;37.046;2022-11-09T04:29:22;25.13;;;12.80;;
70320;SDS011;61127;55.826;37.046;2022-11-09T04:31:48;25.97;;;11.23;;
70320;SDS011;61127;55.826;37.046;2022-11-09T04:34:14;25.70;;;11.05;;
70320;SDS011;61127;55.826;37.046;2022-11-09T04:36:41;28.47;;;11.50;;
70320;SDS011;61127;55.826;37.046;2022-11-09T04:39:06;25.40;;;10.95;;
70320;SDS011;61127;55.826;37.046;2022-11-09T04:41:32;24.15;;;10.43;;
70320;SDS011;61127;55.826;37.046;2022-11-09T04:43:57;21.77;;;10.93;;
70320;SDS011;61127;55.826;37.046;2022-11-09T04:46:24;23.67;;;10.50;;
70320;SDS011;61127;55.826;37.046;2022-11-09T04:48:50;21.88;;;10.40;;
70320;SDS011;61127;55.826;37.046;2022-11-09T04:51:16;21.83;;;10.35;;
70320;SDS011;61127;55.826;37.046;2022-11-09T04:53:41;22.88;;;10.73;;
70320;SDS011;61127;55.826;37.046;2022-11-09T04:56:07;21.20;;;11.30;;
70320;SDS011;61127;55.826;37.046;2022-11-09T04:58:33;26.42;;;11.43;;
70320;SDS011;61127;55.826;37.046;2022-11-09T05:01:03;23.37;;;10.87;;
70320;SDS011;61127;55.826;37.046;2022-11-09T05:03:29;19.33;;;10.57;;
70320;SDS011;61127;55.826;37.046;2022-11-09T05:05:54;21.70;;;10.98;;
70320;SDS011;61127;55.826;37.046;2022-11-09T05:08:20;22.33;;;10.48;;
70320;SDS011;61127;55.826;37.046;2022-11-09T05:10:45;18.77;;;10.60;;
70320;SDS011;61127;55.826;37.046;2022-11-09T05:13:11;22.55;;;10.18;;
70320;SDS011;61127;55.826;37.046;2022-11-09T05:15:37;18.60;;;9.37;;
70320;SDS011;61127;55.826;37.046;2022-11-09T05:18:04;20.95;;;11.20;;
70320;SDS011;61127;55.826;37.046;2022-11-09T05:20:30;20.25;;;10.35;;
70320;SDS011;61127;55.826;37.046;2022-11-09T05:22:57;20.60;;;10.40;;
70320;SDS011;61127;55.826;37.046;2022-11-09T05:25:41;21.05;;;10.80;;
70320;SDS011;61127;55.826;37.046;2022-11-09T05:28:06;20.30;;;10.43;;
70320;SDS011;61127;55.826;37.046;2022-11-09T05:30:32;21.17;;;11.60;;
70320;SDS011;61127;55.826;37.046;2022-11-09T05:32:57;20.00;;;10.07;;
70320;SDS011;61127;55.826;37.046;2022-11-09T05:35:23;21.77;;;10.35;;
70320;SDS011;61127;55.826;37.046;2022-11-09T05:37:50;22.67;;;10.50;;
70320;SDS011;61127;55.826;37.046;2022-11-09T05:40:16;21.77;;;10.68;;
70320;SDS011;61127;55.826;37.046;2022-11-09T05:42:42;20.88;;;10.30;;
70320;SDS011;61127;55.826;37.046;2022-11-09T05:45:08;20.80;;;10.13;;
70320;SDS011;61127;55.826;37.046;2022-11-09T05:47:39;21.70;;;10.73;;
70320;SDS011;61127;55.826;37.046;2022-11-09T05:50:05;22.75;;;10.95;;
70320;SDS011;61127;55.826;37.046;2022-11-09T05:52:31;20.52;;;10.68;;
70320;SDS011;61127;55.826;37.046;2022-11-09T05:54:56;24.87;;;10.30;;
70320;SDS011;61127;55.826;37.046;2022-11-09T05:57:23;20.67;;;10.67;;
70320;SDS011;61127;55.826;37.046;2022-11-09T05:59:48;22.45;;;10.88;;
70320;SDS011;61127;55.826;37.046;2022-11-09T06:02:14;19.47;;;10.00;;
70320;SDS011;61127;55.826;37.046;2022-11-09T06:04:39;21.00;;;10.23;;
70320;SDS011;61127;55.826;37.046;2022-11-09T06:07:06;25.83;;;12.27;;
70320;SDS011;61127;55.826;37.046;2022-11-09T06:09:31;23.48;;;10.20;;
70320;SDS011;61127;55.826;37.046;2022-11-09T06:11:57;23.93;;;11.10;;
70320;SDS011;61127;55.826;37.046;2022-11-09T06:14:22;26.17;;;10.23;;
70320;SDS011;61127;55.826;37.046;2022-11-09T06:16:49;22.02;;;10.00;;
70320;SDS011;61127;55.826;37.046;2022-11-09T06:19:14;22.85;;;9.85;;
70320;SDS011;61127;55.826;37.046;2022-11-09T06:21:40;22.80;;;10.27;;
70320;SDS011;61127;55.826;37.046;2022-11-09T06:24:06;26.70;;;11.43;;
70320;SDS011;61127;55.826;37.046;2022-11-09T06:26:33;23.60;;;10.50;;
70320;SDS011;61127;55.826;37.046;2022-11-09T06:28:59;26.88;;;9.85;;
70320;SDS011;61127;55.826;37.046;2022-11-09T06:31:25;22.37;;;9.93;;
70320;SDS011;61127;55.826;37.046;2022-11-09T06:33:50;23.60;;;10.57;;
70320;SDS011;61127;55.826;37.046;2022-11-09T06:36:17;24.92;;;9.85;;
70320;SDS011;61127;55.826;37.046;2022-11-09T06:38:43;22.98;;;10.32;;
70320;SDS011;61127;55.826;37.046;2022-11-09T06:41:08;25.63;;;10.67;;
70320;SDS011;61127;55.826;37.046;2022-11-09T06:43:34;23.67;;;10.55;;
70320;SDS011;61127;55.826;37.046;2022-11-09T06:46:04;25.27;;;9.90;;
70320;SDS011;61127;55.826;37.046;2022-11-09T06:48:29;22.98;;;9.48;;
70320;SDS011;61127;55.826;37.046;2022-11-09T06:50:58;23.90;;;10.13;;
70320;SDS011;61127;55.826;37.046;2022-11-09T06:53:24;23.53;;;10.50;;
70320;SDS011;61127;55.826;37.046;2022-11-09T06:55:51;24.80;;;10.57;;
70320;SDS011;61127;55.826;37.046;2022-11-09T06:58:17;23.40;;;9.50;;
70320;SDS011;61127;55.826;37.046;2022-11-09T07:00:43;26.93;;;10.57;;
70320;SDS011;61127;55.826;37.046;2022-11-09T07:03:13;26.65;;;10.55;;
70320;SDS011;61127;55.826;37.046;2022-11-09T07:05:39;27.02;;;11.15;;
70320;SDS011;61127;55.826;37.046;2022-11-09T07:08:06;26.27;;;11.10;;
70320;SDS011;61127;55.826;37.046;2022-11-09T07:10:31;25.27;;;10.18;;
70320;SDS011;61127;55.826;37.046;2022-11-09T07:12:57;26.63;;;10.37;;
70320;SDS011;61127;55.826;37.046;2022-11-09T07:15:22;23.75;;;10.05;;
70320;SDS011;61127;55.826;37.046;2022-11-09T07:17:49;24.57;;;9.77;;
70320;SDS011;61127;55.826;37.046;2022-11-09T07:20:14;23.75;;;10.35;;
70320;SDS011;61127;55.826;37.046;2022-11-09T07:22:40;24.83;;;10.60;;
70320;SDS011;61127;55.826;37.046;2022-11-09T07:25:06;26.05;;;10.55;;
70320;SDS011;61127;55.826;37.046;2022-11-09T07:27:32;23.70;;;10.23;;
70320;SDS011;61127;55.826;37.046;2022-11-09T07:29:58;25.13;;;10.23;;
70320;SDS011;61127;55.826;37.046;2022-11-09T07:32:23;22.17;;;9.80;;
70320;SDS011;61127;55.826;37.046;2022-11-09T07:34:49;23.63;;;9.85;;
70320;SDS011;61127;55.826;37.046;2022-11-09T07:37:16;23.17;;;9.80;;
70320;SDS011;61127;55.826;37.046;2022-11-09T07:39:42;22.13;;;9.45;;
70320;SDS011;61127;55.826;37.046;2022-11-09T07:42:07;19.70;;;9.23;;
70320;SDS011;61127;55.826;37.046;2022-11-09T07:44:34;23.42;;;9.70;;
70320;SDS011;61127;55.826;37.046;2022-11-09T07:47:01;21.40;;;9.30;;
70320;SDS011;61127;55.826;37.046;2022-11-09T07:49:27;21.23;;;9.30;;
70320;SDS011;61127;55.826;37.046;2022-11-09T07:51:52;21.73;;;9.45;;
70320;SDS011;61127;55.826;37.046;2022-11-09T07:54:20;17.90;;;8.50;;
70320;SDS011;61127;55.826;37.046;2022-11-09T07:56:47;20.75;;;9.32;;
70320;SDS011;61127;55.826;37.046;2022-11-09T07:59:13;22.35;;;9.27;;
70320;SDS011;61127;55.826;37.046;2022-11-09T08:01:38;19.20;;;9.03;;
70320;SDS011;61127;55.826;37.046;2022-11-09T08:04:04;19.13;;;8.17;;
70320;SDS011;61127;55.826;37.046;2022-11-09T08:06:30;17.85;;;7.57;;
70320;SDS011;61127;55.826;37.046;2022-11-09T08:08:56;21.73;;;8.68;;
70320;SDS011;61127;55.826;37.046;2022-11-09T08:11:22;16.83;;;8.40;;
70320;SDS011;61127;55.826;37.046;2022-11-09T08:13:48;15.90;;;8.30;;
70320;SDS011;61127;55.826;37.046;2022-11-09T08:16:15;17.87;;;8.80;;
70320;SDS011;61127;55.826;37.046;2022-11-09T08:18:41;18.75;;;8.45;;
70320;SDS011;61127;55.826;37.046;2022-11-09T08:21:06;18.20;;;8.60;;
70320;SDS011;61127;55.826;37.046;2022-11-09T08:23:32;18.10;;;8.73;;
70320;SDS011;61127;55.826;37.046;2022-11-09T08:26:00;16.27;;;7.83;;
70320;SDS011;61127;55.826;37.046;2022-11-09T08:28:28;17.92;;;8.70;;
70320;SDS011;61127;55.826;37.046;2022-11-09T08:30:57;19.13;;;8.57;;
70320;SDS011;61127;55.826;37.046;2022-11-09T08:33:23;20.45;;;8.80;;
70320;SDS011;61127;55.826;37.046;2022-11-09T08:35:49;20.55;;;9.43;;
70320;SDS011;61127;55.826;37.046;2022-11-09T08:38:15;20.92;;;9.05;;
70320;SDS011;61127;55.826;37.046;2022-11-09T08:40:40;21.27;;;9.67;;
70320;SDS011;61127;55.826;37.046;2022-11-09T08:43:10;19.40;;;8.47;;
70320;SDS011;61127;55.826;37.046;2022-11-09T08:45:36;19.90;;;9.65;;
70320;SDS011;61127;55.826;37.046;2022-11-09T08:48:02;20.40;;;9.20;;
70320;SDS011;61127;55.826;37.046;2022-11-09T08:50:28;24.48;;;9.25;;
70320;SDS011;61127;55.826;37.046;2022-11-09T08:52:54;22.10;;;10.00;;
70320;SDS011;61127;55.826;37.046;2022-11-09T08:55:20;22.67;;;9.87;;
70320;SDS011;61127;55.826;37.046;2022-11-09T08:57:45;20.52;;;9.57;;
70320;SDS011;61127;55.826;37.046;2022-11-09T09:00:11;19.87;;;9.47;;
70320;SDS011;61127;55.826;37.046;2022-11-09T09:02:37;20.00;;;9.57;;
70320;SDS011;61127;55.826;37.046;2022-11-09T09:05:02;23.27;;;10.70;;
70320;SDS011;61127;55.826;37.046;2022-11-09T09:07:28;21.73;;;9.93;;
70320;SDS011;61127;55.826;37.046;2022-11-09T09:09:54;23.10;;;9.77;;
70320;SDS011;61127;55.826;37.046;2022-11-09T09:12:20;23.00;;;10.15;;
70320;SDS011;61127;55.826;37.046;2022-11-09T09:14:45;22.63;;;10.17;;
70320;SDS011;61127;55.826;37.046;2022-11-09T09:17:11;23.80;;;9.35;;
70320;SDS011;61127;55.826;37.046;2022-11-09T09:19:37;22.88;;;9.98;;
70320;SDS011;61127;55.826;37.046;2022-11-09T09:22:02;21.27;;;9.63;;
70320;SDS011;61127;55.826;37.046;2022-11-09T09:24:28;24.33;;;10.83;;
70320;SDS011;61127;55.826;37.046;2022-11-09T09:26:54;23.73;;;10.70;;
70320;SDS011;61127;55.826;37.046;2022-11-09T09:29:20;23.40;;;10.60;;
70320;SDS011;61127;55.826;37.046;2022-11-09T09:31:46;26.50;;;9.90;;
70320;SDS011;61127;55.826;37.046;2022-11-09T09:34:11;24.85;;;10.20;;
70320;SDS011;61127;55.826;37.046;2022-11-09T09:36:38;24.03;;;10.20;;
70320;SDS011;61127;55.826;37.046;2022-11-09T09:39:04;21.52;;;9.60;;
70320;SDS011;61127;55.826;37.046;2022-11-09T13:38:38;16.73;;;8.50;;
70320;SDS011;61127;55.826;37.046;2022-11-09T13:44:17;14.25;;;7.72;;
70320;SDS011;61127;55.826;37.046;2022-11-09T13:47:04;15.23;;;8.05;;
70320;SDS011;61127;55.826;37.046;2022-11-09T13:49:48;16.23;;;7.70;;
70320;SDS011;61127;55.826;37.046;2022-11-09T13:52:43;14.98;;;7.22;;
70320;SDS011;61127;55.826;37.046;2022-11-09T13:55:37;16.13;;;7.38;;
70320;SDS011;61127;55.826;37.046;2022-11-09T14:04:17;18.23;;;8.57;;
70320;SDS011;61127;55.826;37.046;2022-11-09T14:07:04;17.73;;;8.38;;
70320;SDS011;61127;55.826;37.046;2022-11-09T14:21:40;17.08;;;8.45;;
70320;SDS011;61127;55.826;37.046;2022-11-09T14:24:26;16.80;;;8.93;;
70320;SDS011;61127;55.826;37.046;2022-11-09T14:27:17;17.08;;;8.80;;
70320;SDS011;61127;55.826;37.046;2022-11-09T14:30:12;16.80;;;9.00;;
70320;SDS011;61127;55.826;37.046;2022-11-09T14:32:58;18.52;;;9.60;;
70320;SDS011;61127;55.826;37.046;2022-11-09T14:35:42;17.50;;;9.50;;
70320;SDS011;61127;55.826;37.046;2022-11-09T14:38:35;18.58;;;9.48;;
70320;SDS011;61127;55.826;37.046;2022-11-09T14:41:25;17.45;;;8.70;;
70320;SDS011;61127;55.826;37.046;2022-11-09T14:44:26;16.38;;;7.75;;
70320;SDS011;61127;55.826;37.046;2022-11-09T14:47:26;18.15;;;9.52;;
70320;SDS011;61127;55.826;37.046;2022-11-09T14:50:20;19.38;;;9.48;;
70320;SDS011;61127;55.826;37.046;2022-11-09T14:53:05;15.30;;;8.00;;
70320;SDS011;61127;55.826;37.046;2022-11-09T14:55:49;14.55;;;8.27;;
70320;SDS011;61127;55.826;37.046;2022-11-09T14:58:35;18.90;;;9.10;;
70320;SDS011;61127;55.826;37.046;2022-11-09T15:01:23;17.70;;;8.68;;
70320;SDS011;61127;55.826;37.046;2022-11-09T15:04:14;18.70;;;8.85;;
70320;SDS011;61127;55.826;37.046;2022-11-09T15:07:03;17.35;;;8.50;;
70320;SDS011;61127;55.826;37.046;2022-11-09T15:09:48;17.10;;;9.40;;
70320;SDS011;61127;55.826;37.046;2022-11-09T15:12:34;19.77;;;9.57;;
70320;SDS011;61127;55.826;37.046;2022-11-09T15:15:20;22.20;;;10.40;;
70320;SDS011;61127;55.826;37.046;2022-11-09T15:18:13;18.25;;;9.50;;
70320;SDS011;61127;55.826;37.046;2022-11-09T15:21:12;20.27;;;10.45;;
70320;SDS011;61127;55.826;37.046;2022-11-09T15:26:51;19.83;;;9.98;;
70320;SDS011;61127;55.826;37.046;2022-11-09T15:29:38;23.13;;;10.82;;
70320;SDS011;61127;55.826;37.046;2022-11-09T15:32:22;22.83;;;10.85;;
70320;SDS011;61127;55.826;37.046;2022-11-09T15:35:13;19.90;;;10.02;;
70320;SDS011;61127;55.826;37.046;2022-11-09T15:38:00;22.23;;;10.77;;
70320;SDS011;61127;55.826;37.046;2022-11-09T15:40:44;27.15;;;13.05;;
70320;SDS011;61127;55.826;37.046;2022-11-09T15:43:28;22.92;;;11.95;;
70320;SDS011;61127;55.826;37.046;2022-11-09T15:46:14;21.77;;;10.60;;
70320;SDS011;61127;55.826;37.046;2022-11-09T15:49:17;26.10;;;12.68;;
70320;SDS011;61127;55.826;37.046;2022-11-09T15:52:02;22.08;;;11.15;;
70320;SDS011;61127;55.826;37.046;2022-11-09T15:54:46;23.23;;;11.55;;
70320;SDS011;61127;55.826;37.046;2022-11-09T15:57:31;25.55;;;11.05;;
70320;SDS011;61127;55.826;37.046;2022-11-09T16:00:17;23.90;;;11.13;;
70320;SDS011;61127;55.826;37.046;2022-11-09T16:03:05;21.35;;;10.15;;
70320;SDS011;61127;55.826;37.046;2022-11-09T16:05:49;21.65;;;11.07;;
70320;SDS011;61127;55.826;37.046;2022-11-09T16:08:33;21.17;;;11.45;;
70320;SDS011;61127;55.826;37.046;2022-11-09T16:11:19;23.88;;;12.10;;
70320;SDS011;61127;55.826;37.046;2022-11-09T16:14:03;23.60;;;13.52;;
70320;SDS011;61127;55.826;37.046;2022-11-09T16:16:47;28.67;;;14.23;;
70320;SDS011;61127;55.826;37.046;2022-11-09T16:19:32;23.95;;;12.63;;
70320;SDS011;61127;55.826;37.046;2022-11-09T16:22:17;25.23;;;13.13;;
70320;SDS011;61127;55.826;37.046;2022-11-09T16:25:01;29.35;;;12.52;;
70320;SDS011;61127;55.826;37.046;2022-11-09T16:27:46;23.38;;;12.95;;
70320;SDS011;61127;55.826;37.046;2022-11-09T16:30:30;22.17;;;11.18;;
70320;SDS011;61127;55.826;37.046;2022-11-09T16:38:52;22.05;;;12.25;;
70320;SDS011;61127;55.826;37.046;2022-11-09T16:41:38;22.38;;;11.27;;
70320;SDS011;61127;55.826;37.046;2022-11-09T16:44:23;18.70;;;10.18;;
70320;SDS011;61127;55.826;37.046;2022-11-09T16:47:27;20.20;;;11.50;;
70320;SDS011;61127;55.826;37.046;2022-11-09T16:50:29;17.95;;;10.43;;
70320;SDS011;61127;55.826;37.046;2022-11-09T16:53:13;19.45;;;11.32;;
70320;SDS011;61127;55.826;37.046;2022-11-09T16:55:58;19.45;;;10.65;;
70320;SDS011;61127;55.826;37.046;2022-11-09T16:58:42;19.50;;;10.15;;
70320;SDS011;61127;55.826;37.046;2022-11-09T17:01:26;18.27;;;10.93;;
70320;SDS011;61127;55.826;37.046;2022-11-09T17:04:15;18.73;;;10.60;;
70320;SDS011;61127;55.826;37.046;2022-11-09T17:06:59;20.65;;;10.68;;
70320;SDS011;61127;55.826;37.046;2022-11-09T17:09:44;17.48;;;10.73;;
70320;SDS011;61127;55.826;37.046;2022-11-09T17:12:29;20.77;;;10.65;;
70320;SDS011;61127;55.826;37.046;2022-11-09T17:15:15;18.67;;;10.13;;
70320;SDS011;61127;55.826;37.046;2022-11-09T17:18:03;17.60;;;9.85;;
70320;SDS011;61127;55.826;37.046;2022-11-09T17:20:48;17.52;;;10.77;;
70320;SDS011;61127;55.826;37.046;2022-11-09T17:23:33;19.00;;;10.43;;
70320;SDS011;61127;55.826;37.046;2022-11-09T17:26:18;17.08;;;9.18;;
70320;SDS011;61127;55.826;37.046;2022-11-09T17:29:03;13.10;;;8.20;;
70320;SDS011;61127;55.826;37.046;2022-11-09T17:31:47;16.83;;;8.85;;
70320;SDS011;61127;55.826;37.046;2022-11-09T17:34:35;16.80;;;9.18;;
70320;SDS011;61127;55.826;37.046;2022-11-09T17:37:20;17.25;;;8.80;;
70320;SDS011;61127;55.826;37.046;2022-11-09T17:40:05;14.63;;;8.52;;
70320;SDS011;61127;55.826;37.046;2022-11-09T17:42:49;17.20;;;8.20;;
70320;SDS011;61127;55.826;37.046;2022-11-09T17:45:36;15.13;;;7.82;;
70320;SDS011;61127;55.826;37.046;2022-11-09T17:48:20;17.08;;;8.30;;
70320;SDS011;61127;55.826;37.046;2022-11-09T17:51:05;15.25;;;8.35;;
70320;SDS011;61127;55.826;37.046;2022-11-09T17:53:49;12.68;;;8.02;;
70320;SDS011;61127;55.826;37.046;2022-11-09T17:56:33;15.15;;;8.40;;
70320;SDS011;61127;55.826;37.046;2022-11-09T17:59:18;10.43;;;5.32;;
70320;SDS011;61127;55.826;37.046;2022-11-09T18:02:05;13.00;;;7.03;;
70320;SDS011;61127;55.826;37.046;2022-11-09T18:04:54;13.65;;;7.53;;
70320;SDS011;61127;55.826;37.046;2022-11-09T18:07:38;13.25;;;7.85;;
70320;SDS011;61127;55.826;37.046;2022-11-09T18:10:22;13.68;;;7.85;;
70320;SDS011;61127;55.826;37.046;2022-11-09T18:13:07;15.00;;;8.30;;
70320;SDS011;61127;55.826;37.046;2022-11-09T18:15:53;17.05;;;7.60;;
70320;SDS011;61127;55.826;37.046;2022-11-09T18:18:38;14.40;;;7.32;;
70320;SDS011;61127;55.826;37.046;2022-11-09T18:21:22;13.90;;;7.43;;
70320;SDS011;61127;55.826;37.046;2022-11-09T18:24:09;11.13;;;7.00;;
70320;SDS011;61127;55.826;37.046;2022-11-09T18:26:53;12.55;;;6.80;;
70320;SDS011;61127;55.826;37.046;2022-11-09T18:29:37;11.43;;;6.93;;
70320;SDS011;61127;55.826;37.046;2022-11-09T18:32:21;13.77;;;6.90;;
70320;SDS011;61127;55.826;37.046;2022-11-09T18:35:06;15.00;;;7.35;;
70320;SDS011;61127;55.826;37.046;2022-11-09T18:37:56;12.50;;;6.93;;
70320;SDS011;61127;55.826;37.046;2022-11-09T18:40:54;12.38;;;7.10;;
70320;SDS011;61127;55.826;37.046;2022-11-09T18:43:42;11.75;;;6.88;;
70320;SDS011;61127;55.826;37.046;2022-11-09T18:46:27;13.13;;;6.70;;
70320;SDS011;61127;55.826;37.046;2022-11-09T18:49:17;12.30;;;6.70;;
70320;SDS011;61127;55.826;37.046;2022-11-09T18:52:06;13.90;;;6.57;;
70320;SDS011;61127;55.826;37.046;2022-11-09T18:54:50;11.85;;;6.15;;
70320;SDS011;61127;55.826;37.046;2022-11-09T18:57:35;13.68;;;6.57;;
70320;SDS011;61127;55.826;37.046;2022-11-09T19:00:22;12.32;;;6.10;;
70320;SDS011;61127;55.826;37.046;2022-11-09T19:03:07;9.90;;;5.00;;
70320;SDS011;61127;55.826;37.046;2022-11-09T19:05:52;11.48;;;6.00;;
70320;SDS011;61127;55.826;37.046;2022-11-09T19:08:36;11.05;;;6.45;;
70320;SDS011;61127;55.826;37.046;2022-11-09T19:11:41;11.55;;;6.43;;
70320;SDS011;61127;55.826;37.046;2022-11-09T19:14:27;11.07;;;7.18;;